Time,TemperatureF,DewpointF,PressureIn,WindDirection,WindDirectionDegrees,WindSpeedMPH,WindSpeedGustMPH,Humidity,HourlyPrecipIn,Conditions,Clouds,dailyrainin,SoftwareType,DateUTC
2013-02-14 00:00:00,34.0,17.3,26.37,SE,135,6.5,6.5,50,0.00,,---,0.00,VWS V14.01,2013-02-14 07:00:00,
2013-02-14 00:01:00,34.0,17.3,26.37,WNW,292,1.3,3.6,50,0.00,,---,0.00,VWS V14.01,2013-02-14 07:01:00,
2013-02-14 00:02:00,34.0,17.3,26.37,North,0,4.0,4.0,50,0.00,,---,0.00,VWS V14.01,2013-02-14 07:02:00,
2013-02-14 00:03:00,34.0,17.3,26.37,NNW,338,4.3,4.9,50,0.00,,---,0.00,VWS V14.01,2013-02-14 07:03:00,
2013-02-14 00:04:00,34.0,17.3,26.37,NNW,338,5.8,5.8,50,0.00,,---,0.00,VWS V14.01,2013-02-14 07:04:00,
2013-02-14 00:05:00,33.6,17.0,26.37,NNW,338,2.7,2.7,50,0.00,,---,0.00,VWS V14.01,2013-02-14 07:05:00,
2013-02-14 00:06:00,34.0,17.3,26.37,West,270,3.4,4.3,50,0.00,,---,0.00,VWS V14.01,2013-02-14 07:06:00,
2013-02-14 00:07:00,34.0,17.3,26.37,West,270,3.4,3.4,50,0.00,,---,0.00,VWS V14.01,2013-02-14 07:07:00,
2013-02-14 00:08:00,34.0,17.3,26.37,SE,135,6.5,6.5,50,0.00,,---,0.00,VWS V14.01,2013-02-14 07:08:00,
2013-02-14 00:09:00,34.0,17.3,26.37,NW,315,5.4,6.5,50,0.00,,---,0.00,VWS V14.01,2013-02-14 07:09:00,
2013-02-14 00:10:00,33.4,16.8,26.37,SW,225,3.1,3.1,50,0.00,,---,0.00,VWS V14.01,2013-02-14 07:10:00,
2013-02-14 00:11:00,34.0,17.3,26.37,West,270,2.0,3.6,50,0.00,,---,0.00,VWS V14.01,2013-02-14 07:11:00,
2013-02-14 00:12:00,33.8,17.1,26.37,NNW,338,2.7,2.7,50,0.00,,---,0.00,VWS V14.01,2013-02-14 07:12:00,
2013-02-14 00:13:00,33.8,17.1,26.37,NNW,338,2.7,2.7,50,0.00,,---,0.00,VWS V14.01,2013-02-14 07:13:00,
2013-02-14 00:14:00,33.6,17.0,26.37,NNW,338,7.2,7.2,50,0.00,,---,0.00,VWS V14.01,2013-02-14 07:14:00,
2013-02-14 00:15:00,33.3,17.1,26.37,NW,315,2.7,4.0,51,0.00,,---,0.00,VWS V14.01,2013-02-14 07:15:00,
2013-02-14 00:16:00,33.6,17.0,26.37,NNW,338,7.2,7.2,50,0.00,,---,0.00,VWS V14.01,2013-02-14 07:16:00,
2013-02-14 00:17:00,33.6,17.0,26.37,SW,225,3.1,7.2,50,0.00,,---,0.00,VWS V14.01,2013-02-14 07:17:00,
2013-02-14 00:18:00,33.4,16.8,26.37,WNW,292,2.5,3.1,50,0.00,,---,0.00,VWS V14.01,2013-02-14 07:18:00,
2013-02-14 00:19:00,33.4,16.8,26.37,NNE,22,3.1,3.1,50,0.00,,---,0.00,VWS V14.01,2013-02-14 07:19:00,
2013-02-14 00:20:00,32.9,16.8,26.37,WNW,292,1.1,1.1,51,0.00,,---,0.00,VWS V14.01,2013-02-14 07:20:00,
2013-02-14 00:21:00,33.3,16.6,26.37,NNW,338,4.3,4.3,50,0.00,,---,0.00,VWS V14.01,2013-02-14 07:21:00,
2013-02-14 00:22:00,33.3,17.1,26.37,NW,315,4.0,4.3,51,0.00,,---,0.00,VWS V14.01,2013-02-14 07:22:00,
2013-02-14 00:23:00,33.3,17.1,26.37,NW,315,2.7,4.0,51,0.00,,---,0.00,VWS V14.01,2013-02-14 07:23:00,
2013-02-14 00:24:00,33.3,17.1,26.37,WNW,292,2.2,2.7,51,0.00,,---,0.00,VWS V14.01,2013-02-14 07:24:00,
2013-02-14 00:25:00,33.1,16.5,26.37,NW,315,3.8,6.0,50,0.00,,---,0.00,VWS V14.01,2013-02-14 07:25:00,
2013-02-14 00:26:00,33.1,16.9,26.37,West,270,0.9,2.5,51,0.00,,---,0.00,VWS V14.01,2013-02-14 07:26:00,
2013-02-14 00:27:00,33.1,16.9,26.37,WNW,292,1.1,1.1,51,0.00,,---,0.00,VWS V14.01,2013-02-14 07:27:00,
2013-02-14 00:28:00,32.9,16.8,26.37,NNW,338,2.9,2.9,51,0.00,,---,0.00,VWS V14.01,2013-02-14 07:28:00,
2013-02-14 00:29:00,32.9,16.8,26.37,NW,315,4.3,4.3,51,0.00,,---,0.00,VWS V14.01,2013-02-14 07:29:00,
2013-02-14 00:30:00,33.1,16.5,26.37,NE,45,2.5,2.5,50,0.00,,---,0.00,VWS V14.01,2013-02-14 07:30:00,
2013-02-14 00:31:00,33.1,16.5,26.37,WNW,292,6.0,6.0,50,0.00,,---,0.00,VWS V14.01,2013-02-14 07:31:00,
2013-02-14 00:32:00,33.1,16.5,26.37,WNW,292,6.0,6.0,50,0.00,,---,0.00,VWS V14.01,2013-02-14 07:32:00,
2013-02-14 00:33:00,33.3,16.6,26.37,North,0,3.1,6.0,50,0.00,,---,0.00,VWS V14.01,2013-02-14 07:33:00,
2013-02-14 00:34:00,33.3,16.6,26.37,West,270,3.6,3.6,50,0.00,,---,0.00,VWS V14.01,2013-02-14 07:34:00,
2013-02-14 00:35:00,33.3,16.6,26.37,NNW,338,6.0,6.0,50,0.00,,---,0.00,VWS V14.01,2013-02-14 07:35:00,
2013-02-14 00:36:00,33.3,16.6,26.37,NNW,338,3.6,6.0,50,0.00,,---,0.00,VWS V14.01,2013-02-14 07:36:00,
2013-02-14 00:37:00,33.1,16.5,26.37,NE,45,2.5,3.6,50,0.00,,---,0.00,VWS V14.01,2013-02-14 07:37:00,
2013-02-14 00:38:00,33.1,16.5,26.37,NNW,338,5.8,5.8,50,0.00,,---,0.00,VWS V14.01,2013-02-14 07:38:00,
2013-02-14 00:39:00,33.1,16.5,26.37,NNW,338,5.8,5.8,50,0.00,,---,0.00,VWS V14.01,2013-02-14 07:39:00,
2013-02-14 00:40:00,33.3,16.2,26.37,NW,315,3.8,3.8,49,0.00,,---,0.00,VWS V14.01,2013-02-14 07:40:00,
2013-02-14 00:41:00,33.3,16.6,26.37,NW,315,4.3,7.6,50,0.00,,---,0.00,VWS V14.01,2013-02-14 07:41:00,
2013-02-14 00:42:00,33.3,16.6,26.37,NNW,338,6.0,6.0,50,0.00,,---,0.00,VWS V14.01,2013-02-14 07:42:00,
2013-02-14 00:43:00,33.3,16.6,26.37,WNW,292,3.1,6.0,50,0.00,,---,0.00,VWS V14.01,2013-02-14 07:43:00,
2013-02-14 00:44:00,33.3,16.2,26.37,WNW,292,3.1,3.1,49,0.00,,---,0.00,VWS V14.01,2013-02-14 07:44:00,
2013-02-14 00:45:00,33.3,16.2,26.37,NNW,338,3.1,3.1,49,0.00,,---,0.00,VWS V14.01,2013-02-14 07:45:00,
2013-02-14 00:46:00,33.3,16.2,26.37,NW,315,3.8,3.8,49,0.00,,---,0.00,VWS V14.01,2013-02-14 07:46:00,
2013-02-14 00:47:00,33.3,16.2,26.37,NW,315,3.8,3.8,49,0.00,,---,0.00,VWS V14.01,2013-02-14 07:47:00,
2013-02-14 00:48:00,33.4,16.4,26.37,NNW,338,6.5,6.5,49,0.00,,---,0.00,VWS V14.01,2013-02-14 07:48:00,
2013-02-14 00:49:00,33.3,16.2,26.37,NNW,338,6.5,6.5,49,0.00,,---,0.00,VWS V14.01,2013-02-14 07:49:00,
2013-02-14 00:50:00,33.3,16.2,26.37,NW,315,6.0,6.0,49,0.00,,---,0.00,VWS V14.01,2013-02-14 07:50:00,
2013-02-14 00:51:00,33.3,16.2,26.37,NNW,338,3.1,3.1,49,0.00,,---,0.00,VWS V14.01,2013-02-14 07:51:00,
2013-02-14 00:52:00,32.5,18.2,26.37,NW,315,12.3,12.3,55,0.00,,---,0.00,VWS V14.01,2013-02-14 07:52:00,
2013-02-14 00:54:00,33.3,16.2,26.37,NNW,338,3.1,3.1,49,0.00,,---,0.00,VWS V14.01,2013-02-14 07:54:00,
2013-02-14 00:55:00,33.3,16.2,26.37,NNW,338,3.4,3.4,49,0.00,,---,0.00,VWS V14.01,2013-02-14 07:55:00,
2013-02-14 00:56:00,33.3,16.2,26.37,NNW,338,3.1,3.1,49,0.00,,---,0.00,VWS V14.01,2013-02-14 07:56:00,
2013-02-14 00:57:00,33.3,16.2,26.37,NNW,338,3.1,3.1,49,0.00,,---,0.00,VWS V14.01,2013-02-14 07:57:00,
2013-02-14 00:58:00,33.3,16.2,26.37,NNW,338,4.3,6.0,49,0.00,,---,0.00,VWS V14.01,2013-02-14 07:58:00,
2013-02-14 00:59:00,33.3,16.2,26.37,NNE,22,2.9,2.9,49,0.00,,---,0.00,VWS V14.01,2013-02-14 07:59:00,
2013-02-14 01:00:00,33.3,16.2,26.37,West,270,6.3,6.3,49,0.00,,---,0.00,VWS V14.01,2013-02-14 08:00:00,
2013-02-14 01:01:00,33.3,16.2,26.37,SSW,202,6.5,6.5,49,0.00,,---,0.00,VWS V14.01,2013-02-14 08:01:00,
2013-02-14 01:02:00,33.3,16.2,26.37,NNW,338,3.4,6.5,49,0.00,,---,0.00,VWS V14.01,2013-02-14 08:02:00,
2013-02-14 01:03:00,33.3,16.2,26.37,North,0,3.4,3.4,49,0.00,,---,0.00,VWS V14.01,2013-02-14 08:03:00,
2013-02-14 01:04:00,33.3,16.2,26.37,NNW,338,4.3,4.3,49,0.00,,---,0.00,VWS V14.01,2013-02-14 08:04:00,
2013-02-14 01:05:00,33.4,16.4,26.37,NNW,338,9.6,9.6,49,0.00,,---,0.00,VWS V14.01,2013-02-14 08:05:00,
2013-02-14 01:06:00,33.4,16.4,26.37,SW,225,3.1,9.6,49,0.00,,---,0.00,VWS V14.01,2013-02-14 08:06:00,
2013-02-14 01:07:00,33.3,16.2,26.37,NNE,22,2.9,3.1,49,0.00,,---,0.00,VWS V14.01,2013-02-14 08:07:00,
2013-02-14 01:08:00,33.3,16.2,26.37,WNW,292,3.4,3.4,49,0.00,,---,0.00,VWS V14.01,2013-02-14 08:08:00,
2013-02-14 01:09:00,33.1,16.0,26.37,NW,315,4.0,4.0,49,0.00,,---,0.00,VWS V14.01,2013-02-14 08:09:00,
2013-02-14 01:10:00,33.3,16.2,26.37,West,270,4.3,5.6,49,0.00,,---,0.00,VWS V14.01,2013-02-14 08:10:00,
2013-02-14 01:11:00,33.3,16.2,26.37,NW,315,3.8,4.3,49,0.00,,---,0.00,VWS V14.01,2013-02-14 08:11:00,
2013-02-14 01:12:00,33.3,16.2,26.37,NW,315,3.8,3.8,49,0.00,,---,0.00,VWS V14.01,2013-02-14 08:12:00,
2013-02-14 01:13:00,33.3,16.2,26.37,WNW,292,2.2,4.3,49,0.00,,---,0.00,VWS V14.01,2013-02-14 08:13:00,
2013-02-14 01:14:00,33.3,16.6,26.37,NNW,338,5.6,5.6,50,0.00,,---,0.00,VWS V14.01,2013-02-14 08:14:00,
2013-02-14 01:15:00,33.1,16.0,26.37,NNW,338,2.9,2.9,49,0.00,,---,0.00,VWS V14.01,2013-02-14 08:15:00,
2013-02-14 01:16:00,33.1,16.0,26.37,West,270,3.8,5.6,49,0.00,,---,0.00,VWS V14.01,2013-02-14 08:16:00,
2013-02-14 01:17:00,33.1,16.0,26.37,NW,315,4.0,4.0,49,0.00,,---,0.00,VWS V14.01,2013-02-14 08:17:00,
2013-02-14 01:18:00,33.1,16.0,26.37,NW,315,4.0,4.0,49,0.00,,---,0.00,VWS V14.01,2013-02-14 08:18:00,
2013-02-14 01:19:00,33.3,16.6,26.37,NNW,338,5.4,5.6,50,0.00,,---,0.00,VWS V14.01,2013-02-14 08:19:00,
2013-02-14 01:20:00,33.1,16.0,26.37,WNW,292,3.6,4.0,49,0.00,,---,0.00,VWS V14.01,2013-02-14 08:20:00,
2013-02-14 01:21:00,33.1,16.0,26.37,NW,315,7.6,7.6,49,0.00,,---,0.00,VWS V14.01,2013-02-14 08:21:00,
2013-02-14 01:22:00,33.1,16.0,26.37,NNW,338,5.6,7.6,49,0.00,,---,0.00,VWS V14.01,2013-02-14 08:22:00,
2013-02-14 01:23:00,33.3,16.6,26.37,WNW,292,7.6,7.6,50,0.00,,---,0.00,VWS V14.01,2013-02-14 08:23:00,
2013-02-14 01:24:00,33.1,16.5,26.37,NNW,338,6.3,6.3,50,0.00,,---,0.00,VWS V14.01,2013-02-14 08:24:00,
2013-02-14 01:25:00,33.3,16.6,26.37,North,0,11.0,11.0,50,0.00,,---,0.00,VWS V14.01,2013-02-14 08:25:00,
2013-02-14 01:26:00,31.5,19.2,26.40,WNW,292,3.1,10.3,60,0.00,,---,0.00,VWS V14.01,2013-02-14 08:26:00,
2013-02-14 01:27:00,33.3,16.6,26.37,WNW,292,5.6,11.0,50,0.00,,---,0.00,VWS V14.01,2013-02-14 08:27:00,
2013-02-14 01:28:00,31.5,19.2,26.40,North,0,4.9,4.9,60,0.00,,---,0.00,VWS V14.01,2013-02-14 08:28:00,
2013-02-14 01:29:00,33.1,16.5,26.37,NW,315,5.4,5.4,50,0.00,,---,0.00,VWS V14.01,2013-02-14 08:29:00,
2013-02-14 01:30:00,33.3,16.6,26.37,NNW,338,8.1,8.7,50,0.00,,---,0.00,VWS V14.01,2013-02-14 08:30:00,
2013-02-14 01:31:00,33.3,16.6,26.37,NNW,338,6.3,8.5,50,0.00,,---,0.00,VWS V14.01,2013-02-14 08:31:00,
2013-02-14 01:32:00,33.1,16.5,26.37,NNW,338,6.3,6.3,50,0.00,,---,0.00,VWS V14.01,2013-02-14 08:32:00,
2013-02-14 01:33:00,33.1,16.5,26.37,NNW,338,5.6,6.3,50,0.00,,---,0.00,VWS V14.01,2013-02-14 08:33:00,
2013-02-14 01:34:00,33.1,16.5,26.37,NW,315,10.5,10.5,50,0.00,,---,0.00,VWS V14.01,2013-02-14 08:34:00,
2013-02-14 01:35:00,33.1,16.5,26.37,NW,315,6.5,6.5,50,0.00,,---,0.00,VWS V14.01,2013-02-14 08:35:00,
2013-02-14 01:36:00,33.1,16.5,26.37,WNW,292,5.4,6.5,50,0.00,,---,0.00,VWS V14.01,2013-02-14 08:36:00,
2013-02-14 01:37:00,33.1,16.5,26.37,NW,315,5.4,5.4,50,0.00,,---,0.00,VWS V14.01,2013-02-14 08:37:00,
2013-02-14 01:38:00,33.1,16.5,26.37,NW,315,10.3,10.3,50,0.00,,---,0.00,VWS V14.01,2013-02-14 08:38:00,
2013-02-14 01:39:00,33.1,16.5,26.37,NW,315,4.0,4.0,50,0.00,,---,0.00,VWS V14.01,2013-02-14 08:39:00,
2013-02-14 01:40:00,33.1,16.5,26.37,NNW,338,5.4,8.5,50,0.00,,---,0.00,VWS V14.01,2013-02-14 08:40:00,
2013-02-14 01:41:00,33.1,16.5,26.37,NNE,22,5.4,5.4,50,0.00,,---,0.00,VWS V14.01,2013-02-14 08:41:00,
2013-02-14 01:42:00,33.1,16.5,26.37,NNW,338,5.6,5.6,50,0.00,,---,0.00,VWS V14.01,2013-02-14 08:42:00,
2013-02-14 01:43:00,33.1,16.5,26.37,NNW,338,5.6,10.5,50,0.00,,---,0.00,VWS V14.01,2013-02-14 08:43:00,
2013-02-14 01:44:00,32.5,18.2,26.37,NW,315,12.3,12.3,55,0.00,,---,0.00,VWS V14.01,2013-02-14 08:44:00,
2013-02-14 01:45:00,33.1,16.5,26.37,NNW,338,9.6,9.6,50,0.00,,---,0.00,VWS V14.01,2013-02-14 08:45:00,
2013-02-14 01:46:00,33.1,16.5,26.37,NW,315,4.0,9.6,50,0.00,,---,0.00,VWS V14.01,2013-02-14 08:46:00,
2013-02-14 01:47:00,31.5,18.8,26.40,West,270,8.5,8.5,59,0.00,,---,0.37,VWS V14.01,2013-02-14 08:47:00,
2013-02-14 01:48:00,33.1,16.5,26.37,WNW,292,6.0,6.0,50,0.00,,---,0.00,VWS V14.01,2013-02-14 08:48:00,
2013-02-14 01:49:00,32.5,18.2,26.40,NNW,338,12.8,12.8,55,0.00,,---,0.00,VWS V14.01,2013-02-14 08:49:00,
2013-02-14 01:50:00,32.5,18.2,26.37,NW,315,7.2,8.7,55,0.00,,---,0.00,VWS V14.01,2013-02-14 08:50:00,
2013-02-14 01:51:00,32.5,18.2,26.37,North,0,4.9,7.2,55,0.00,,---,0.00,VWS V14.01,2013-02-14 08:51:00,
2013-02-14 01:52:00,32.5,18.2,26.37,NW,315,12.3,12.3,55,0.00,,---,0.00,VWS V14.01,2013-02-14 08:52:00,
2013-02-14 01:53:00,31.6,19.0,26.43,West,270,4.3,4.3,59,0.00,,---,0.37,VWS V14.01,2013-02-14 08:53:00,
2013-02-14 01:54:00,32.4,18.8,26.40,WNW,292,6.3,6.3,57,0.00,,---,0.00,VWS V14.01,2013-02-14 08:54:00,
2013-02-14 01:55:00,32.5,18.2,26.37,NNW,338,4.0,12.3,55,0.00,,---,0.00,VWS V14.01,2013-02-14 08:55:00,
2013-02-14 01:56:00,32.5,18.2,26.37,NNW,338,6.5,6.5,55,0.00,,---,0.00,VWS V14.01,2013-02-14 08:56:00,
2013-02-14 01:57:00,32.5,18.2,26.40,NNW,338,12.8,12.8,55,0.00,,---,0.00,VWS V14.01,2013-02-14 08:57:00,
2013-02-14 01:58:00,32.5,18.2,26.40,North,0,8.1,12.8,55,0.00,,---,0.00,VWS V14.01,2013-02-14 08:58:00,
2013-02-14 01:59:00,31.8,19.1,26.40,WNW,292,6.0,6.0,59,0.00,,---,0.00,VWS V14.01,2013-02-14 08:59:00,
2013-02-14 02:00:00,32.4,18.8,26.40,North,0,6.0,8.1,57,0.00,,---,0.00,VWS V14.01,2013-02-14 09:00:00,
2013-02-14 02:01:00,32.4,18.8,26.40,NNW,338,5.4,6.0,57,0.00,,---,0.00,VWS V14.01,2013-02-14 09:01:00,
2013-02-14 02:02:00,32.4,18.8,26.40,WNW,292,6.3,6.3,57,0.00,,---,0.00,VWS V14.01,2013-02-14 09:02:00,
2013-02-14 02:03:00,32.4,18.8,26.40,NNW,338,4.9,6.3,57,0.00,,---,0.00,VWS V14.01,2013-02-14 09:03:00,
2013-02-14 02:04:00,31.6,19.4,26.40,WNW,292,6.0,6.0,60,0.00,,---,0.00,VWS V14.01,2013-02-14 09:04:00,
2013-02-14 02:05:00,32.4,18.8,26.40,WNW,292,5.4,5.4,57,0.00,,---,0.00,VWS V14.01,2013-02-14 09:05:00,
2013-02-14 02:06:00,32.4,18.8,26.40,WNW,292,6.0,6.0,57,0.00,,---,0.00,VWS V14.01,2013-02-14 09:06:00,
2013-02-14 02:07:00,31.8,19.1,26.40,WNW,292,6.0,6.0,59,0.00,,---,0.00,VWS V14.01,2013-02-14 09:07:00,
2013-02-14 02:08:00,31.6,19.0,26.40,WNW,292,6.0,6.0,59,0.00,,---,0.00,VWS V14.01,2013-02-14 09:08:00,
2013-02-14 02:09:00,31.3,19.4,26.40,WNW,292,6.0,6.0,61,0.00,,---,0.00,VWS V14.01,2013-02-14 09:09:00,
2013-02-14 02:10:00,31.6,19.4,26.40,WNW,292,6.0,6.0,60,0.00,,---,0.00,VWS V14.01,2013-02-14 09:10:00,
2013-02-14 02:11:00,31.6,19.4,26.40,WNW,292,6.0,6.0,60,0.00,,---,0.00,VWS V14.01,2013-02-14 09:11:00,
2013-02-14 02:12:00,31.6,19.4,26.40,WNW,292,6.0,6.0,60,0.00,,---,0.00,VWS V14.01,2013-02-14 09:12:00,
2013-02-14 02:13:00,31.8,18.3,26.40,NNW,338,3.6,8.7,57,0.00,,---,0.37,VWS V14.01,2013-02-14 09:13:00,
2013-02-14 02:14:00,31.3,19.0,26.40,North,0,10.1,10.1,60,0.00,,---,0.00,VWS V14.01,2013-02-14 09:14:00,
2013-02-14 02:15:00,31.5,19.6,26.40,WNW,292,6.0,6.0,61,0.00,,---,0.00,VWS V14.01,2013-02-14 09:15:00,
2013-02-14 02:16:00,31.5,19.6,26.40,WNW,292,6.0,6.0,61,0.00,,---,0.00,VWS V14.01,2013-02-14 09:16:00,
2013-02-14 02:17:00,31.3,19.4,26.40,WNW,292,6.0,6.0,61,0.00,,---,0.00,VWS V14.01,2013-02-14 09:17:00,
2013-02-14 02:18:00,31.5,19.6,26.40,WNW,292,6.0,6.0,61,0.00,,---,0.00,VWS V14.01,2013-02-14 09:18:00,
2013-02-14 02:19:00,31.5,19.2,26.40,WNW,292,3.1,3.1,60,0.00,,---,0.00,VWS V14.01,2013-02-14 09:19:00,
2013-02-14 02:20:00,31.3,19.0,26.40,NNW,338,5.6,6.0,60,0.00,,---,0.00,VWS V14.01,2013-02-14 09:20:00,
2013-02-14 02:21:00,31.3,19.0,26.40,North,0,10.1,10.1,60,0.00,,---,0.00,VWS V14.01,2013-02-14 09:21:00,
2013-02-14 02:23:00,31.3,19.0,26.40,North,0,10.1,10.1,60,0.00,,---,0.00,VWS V14.01,2013-02-14 09:23:00,
2013-02-14 02:24:00,31.5,19.2,26.40,NNW,338,9.6,10.1,60,0.00,,---,0.00,VWS V14.01,2013-02-14 09:24:00,
2013-02-14 02:25:00,31.5,19.2,26.40,NW,315,10.3,10.3,60,0.00,,---,0.00,VWS V14.01,2013-02-14 09:25:00,
2013-02-14 02:26:00,31.5,19.2,26.40,WNW,292,3.1,10.3,60,0.00,,---,0.00,VWS V14.01,2013-02-14 09:26:00,
2013-02-14 02:27:00,31.5,19.2,26.40,West,270,4.9,4.9,60,0.00,,---,0.00,VWS V14.01,2013-02-14 09:27:00,
2013-02-14 02:28:00,31.5,19.2,26.40,North,0,4.9,4.9,60,0.00,,---,0.00,VWS V14.01,2013-02-14 09:28:00,
2013-02-14 02:29:00,31.3,18.6,26.40,NW,315,8.1,8.1,59,0.00,,---,0.37,VWS V14.01,2013-02-14 09:29:00,
2013-02-14 02:30:00,31.5,19.2,26.40,NW,315,3.8,5.6,60,0.00,,---,0.00,VWS V14.01,2013-02-14 09:30:00,
2013-02-14 02:31:00,31.5,19.2,26.40,WNW,292,6.5,6.5,60,0.00,,---,0.00,VWS V14.01,2013-02-14 09:31:00,
2013-02-14 02:32:00,31.3,19.0,26.40,WNW,292,6.5,6.5,60,0.00,,---,0.00,VWS V14.01,2013-02-14 09:32:00,
2013-02-14 02:33:00,31.3,19.0,26.40,WNW,292,5.8,5.8,60,0.00,,---,0.00,VWS V14.01,2013-02-14 09:33:00,
2013-02-14 02:34:00,31.5,18.8,26.40,NW,315,3.6,5.6,59,0.00,,---,0.37,VWS V14.01,2013-02-14 09:34:00,
2013-02-14 02:35:00,31.3,18.6,26.40,NNW,338,6.5,6.5,59,0.00,,---,0.37,VWS V14.01,2013-02-14 09:35:00,
2013-02-14 02:36:00,31.3,18.6,26.40,NE,45,6.0,6.5,59,0.00,,---,0.37,VWS V14.01,2013-02-14 09:36:00,
2013-02-14 02:37:00,31.3,18.6,26.40,NW,315,8.1,8.1,59,0.00,,---,0.37,VWS V14.01,2013-02-14 09:37:00,
2013-02-14 02:38:00,31.3,18.6,26.40,NNW,338,6.3,8.1,59,0.00,,---,0.37,VWS V14.01,2013-02-14 09:38:00,
2013-02-14 02:39:00,31.5,18.8,26.40,WSW,248,7.6,8.5,59,0.00,,---,0.37,VWS V14.01,2013-02-14 09:39:00,
2013-02-14 02:40:00,31.3,18.6,26.40,SW,225,4.3,6.5,59,0.00,,---,0.37,VWS V14.01,2013-02-14 09:40:00,
2013-02-14 02:41:00,31.3,18.6,26.40,WSW,248,4.9,4.9,59,0.00,,---,0.37,VWS V14.01,2013-02-14 09:41:00,
2013-02-14 02:42:00,31.5,18.8,26.40,NW,315,3.6,3.6,59,0.00,,---,0.37,VWS V14.01,2013-02-14 09:42:00,
2013-02-14 02:43:00,31.5,18.8,26.40,West,270,6.9,6.9,59,0.00,,---,0.37,VWS V14.01,2013-02-14 09:43:00,
2013-02-14 02:44:00,31.6,19.0,26.43,NW,315,3.8,3.8,59,0.00,,---,0.37,VWS V14.01,2013-02-14 09:44:00,
2013-02-14 02:45:00,31.5,18.8,26.40,WNW,292,5.6,5.6,59,0.00,,---,0.37,VWS V14.01,2013-02-14 09:45:00,
2013-02-14 02:46:00,31.5,18.8,26.40,WNW,292,5.6,5.6,59,0.00,,---,0.37,VWS V14.01,2013-02-14 09:46:00,
2013-02-14 02:47:00,31.5,18.8,26.40,West,270,8.5,8.5,59,0.00,,---,0.37,VWS V14.01,2013-02-14 09:47:00,
2013-02-14 02:48:00,31.5,18.8,26.40,WSW,248,7.6,8.5,59,0.00,,---,0.37,VWS V14.01,2013-02-14 09:48:00,
2013-02-14 02:49:00,31.6,18.6,26.43,SSW,202,7.8,7.8,58,0.00,,---,0.37,VWS V14.01,2013-02-14 09:49:00,
2013-02-14 02:50:00,31.5,18.8,26.43,SSW,202,7.4,7.4,59,0.00,,---,0.37,VWS V14.01,2013-02-14 09:50:00,
2013-02-14 02:51:00,31.5,18.8,26.43,West,270,7.8,7.8,59,0.00,,---,0.37,VWS V14.01,2013-02-14 09:51:00,
2013-02-14 02:52:00,31.5,18.8,26.43,NE,45,3.4,7.8,59,0.00,,---,0.37,VWS V14.01,2013-02-14 09:52:00,
2013-02-14 02:53:00,31.6,19.0,26.43,West,270,4.3,4.3,59,0.00,,---,0.37,VWS V14.01,2013-02-14 09:53:00,
2013-02-14 02:54:00,31.8,18.7,26.43,NW,315,7.2,7.2,58,0.00,,---,0.37,VWS V14.01,2013-02-14 09:54:00,
2013-02-14 02:55:00,31.6,18.6,26.43,West,270,6.0,7.4,58,0.00,,---,0.37,VWS V14.01,2013-02-14 09:55:00,
2013-02-14 02:56:00,31.6,18.6,26.43,North,0,5.6,6.0,58,0.00,,---,0.37,VWS V14.01,2013-02-14 09:56:00,
2013-02-14 02:57:00,31.6,18.6,26.43,SSW,202,7.8,7.8,58,0.00,,---,0.37,VWS V14.01,2013-02-14 09:57:00,
2013-02-14 02:58:00,31.6,18.6,26.43,SW,225,5.4,7.8,58,0.00,,---,0.37,VWS V14.01,2013-02-14 09:58:00,
2013-02-14 02:59:00,31.8,18.7,26.43,NNE,22,7.6,7.6,58,0.00,,---,0.37,VWS V14.01,2013-02-14 09:59:00,
2013-02-14 03:00:00,31.6,18.6,26.43,South,180,4.0,11.2,58,0.00,,---,0.37,VWS V14.01,2013-02-14 10:00:00,
2013-02-14 03:01:00,31.6,18.6,26.43,South,180,4.0,4.0,58,0.00,,---,0.37,VWS V14.01,2013-02-14 10:01:00,
2013-02-14 03:02:00,31.6,18.6,26.43,NW,315,7.2,7.2,58,0.00,,---,0.37,VWS V14.01,2013-02-14 10:02:00,
2013-02-14 03:03:00,31.8,18.7,26.43,NE,45,3.1,7.2,58,0.00,,---,0.37,VWS V14.01,2013-02-14 10:03:00,
2013-02-14 03:04:00,31.8,18.7,26.40,NNW,338,8.7,8.7,58,0.00,,---,0.37,VWS V14.01,2013-02-14 10:04:00,
2013-02-14 03:05:00,31.8,18.7,26.43,SW,225,6.5,6.5,58,0.00,,---,0.37,VWS V14.01,2013-02-14 10:05:00,
2013-02-14 03:06:00,31.8,18.7,26.43,NNE,22,7.6,7.6,58,0.00,,---,0.37,VWS V14.01,2013-02-14 10:06:00,
2013-02-14 03:07:00,31.8,18.7,26.43,NNE,22,7.6,7.6,58,0.00,,---,0.37,VWS V14.01,2013-02-14 10:07:00,
2013-02-14 03:08:00,31.8,18.7,26.43,NNE,22,7.6,7.6,58,0.00,,---,0.37,VWS V14.01,2013-02-14 10:08:00,
2013-02-14 03:09:00,32.0,18.5,26.40,WSW,248,7.6,7.6,57,0.00,,---,0.37,VWS V14.01,2013-02-14 10:09:00,
2013-02-14 03:10:00,31.8,18.7,26.40,WSW,248,7.8,7.8,58,0.00,,---,0.37,VWS V14.01,2013-02-14 10:10:00,
2013-02-14 03:12:00,31.8,18.7,26.40,NNW,338,8.7,13.2,58,0.00,,---,0.37,VWS V14.01,2013-02-14 10:12:00,
2013-02-14 03:13:00,31.8,18.3,26.40,NNW,338,3.6,8.7,57,0.00,,---,0.37,VWS V14.01,2013-02-14 10:13:00,
2013-02-14 03:14:00,32.0,18.5,26.40,NNE,22,3.4,3.4,57,0.00,,---,0.37,VWS V14.01,2013-02-14 10:14:00,
2013-02-14 03:15:00,32.0,18.5,26.40,NW,315,6.0,6.0,57,0.00,,---,0.37,VWS V14.01,2013-02-14 10:15:00,
2013-02-14 03:16:00,32.0,18.5,26.40,NE,45,3.8,6.0,57,0.00,,---,0.37,VWS V14.01,2013-02-14 10:16:00,
2013-02-14 03:17:00,32.0,18.5,26.40,WSW,248,7.6,7.6,57,0.00,,---,0.37,VWS V14.01,2013-02-14 10:17:00,
2013-02-14 03:18:00,32.0,18.5,26.40,WSW,248,7.6,7.6,57,0.00,,---,0.37,VWS V14.01,2013-02-14 10:18:00,
2013-02-14 03:19:00,31.8,18.3,26.40,NNE,22,3.4,572.8,57,0.00,,---,0.37,VWS V14.01,2013-02-14 10:19:00,
2013-02-14 03:20:00,32.0,18.5,26.40,NNE,22,3.4,3.4,57,0.00,,---,0.37,VWS V14.01,2013-02-14 10:20:00,
2013-02-14 03:21:00,32.0,18.5,26.40,NNE,22,3.4,3.4,57,0.00,,---,0.37,VWS V14.01,2013-02-14 10:21:00,
2013-02-14 03:24:00,31.6,18.2,26.40,WSW,248,3.8,572.8,57,0.00,,---,0.37,VWS V14.01,2013-02-14 10:24:00,
2013-02-14 03:29:00,31.8,18.3,26.40,WSW,248,3.8,572.8,57,0.00,,---,0.37,VWS V14.01,2013-02-14 10:29:00,
2013-02-14 03:34:00,32.0,18.1,26.40,SW,225,11.0,572.8,56,0.00,,---,0.37,VWS V14.01,2013-02-14 10:34:00,
2013-02-14 03:39:00,32.2,18.3,26.40,East,90,6.0,572.8,56,0.00,,---,0.37,VWS V14.01,2013-02-14 10:39:00,
2013-02-14 03:44:00,32.4,18.4,26.40,WNW,292,8.7,572.8,56,0.00,,---,0.37,VWS V14.01,2013-02-14 10:44:00,
2013-02-14 03:49:00,32.5,18.2,26.40,NNW,338,8.7,572.8,55,0.00,,---,0.37,VWS V14.01,2013-02-14 10:49:00,
2013-02-14 03:54:00,32.5,17.8,26.40,SSW,202,8.7,572.8,54,0.00,,---,0.37,VWS V14.01,2013-02-14 10:54:00,
2013-02-14 03:59:00,32.7,17.5,26.37,NNW,338,7.6,572.8,53,0.00,,---,0.37,VWS V14.01,2013-02-14 10:59:00,
2013-02-14 04:04:00,33.1,16.9,26.37,WNW,292,6.3,6.3,51,99.99,,---,99.99,VWS V14.01,2013-02-14 11:04:00,
2013-02-14 04:09:00,33.3,17.1,26.37,NNW,338,6.0,11.4,51,0.00,,---,0.37,VWS V14.01,2013-02-14 11:09:00,
2013-02-14 04:14:00,33.3,16.6,26.37,North,0,7.8,7.8,50,0.00,,---,0.37,VWS V14.01,2013-02-14 11:14:00,
2013-02-14 04:19:00,33.3,16.6,26.37,NNE,22,4.9,9.0,50,0.00,,---,0.37,VWS V14.01,2013-02-14 11:19:00,
2013-02-14 04:24:00,33.4,16.4,26.37,WSW,248,3.4,9.0,49,0.00,,---,0.37,VWS V14.01,2013-02-14 11:24:00,
2013-02-14 04:29:00,33.4,16.4,26.37,NNW,338,5.6,9.0,49,0.00,,---,0.37,VWS V14.01,2013-02-14 11:29:00,
2013-02-14 04:34:00,33.6,16.0,26.37,NNW,338,5.8,9.0,48,0.00,,---,0.37,VWS V14.01,2013-02-14 11:34:00,
2013-02-14 04:39:00,33.6,15.6,26.37,NNW,338,5.8,9.0,47,0.00,,---,0.37,VWS V14.01,2013-02-14 11:39:00,
2013-02-14 04:44:00,33.6,15.6,26.37,North,0,4.7,9.0,47,0.00,,---,0.37,VWS V14.01,2013-02-14 11:44:00,
2013-02-14 04:49:00,33.3,15.2,26.37,NNW,338,3.4,9.0,47,0.00,,---,0.37,VWS V14.01,2013-02-14 11:49:00,
2013-02-14 04:54:00,33.3,15.2,26.37,NNW,338,3.4,9.0,47,0.00,,---,0.37,VWS V14.01,2013-02-14 11:54:00,
2013-02-14 04:59:00,33.3,15.2,26.37,NNW,338,3.4,9.0,47,0.00,,---,0.37,VWS V14.01,2013-02-14 11:59:00,
2013-02-14 05:04:00,33.3,15.2,26.40,NNE,22,8.1,12.5,47,0.00,,---,0.37,VWS V14.01,2013-02-14 12:04:00,
2013-02-14 05:09:00,33.4,15.4,26.40,WNW,292,7.8,12.5,47,0.00,,---,0.37,VWS V14.01,2013-02-14 12:09:00,
2013-02-14 05:14:00,33.3,15.2,26.40,NNW,338,8.5,12.5,47,0.00,,---,0.37,VWS V14.01,2013-02-14 12:14:00,
2013-02-14 05:19:00,33.1,15.1,26.40,SW,225,6.5,12.5,47,0.00,,---,0.37,VWS V14.01,2013-02-14 12:19:00,
2013-02-14 05:24:00,32.9,15.4,26.40,NNE,22,7.6,14.8,48,0.00,,---,0.37,VWS V14.01,2013-02-14 12:24:00,
2013-02-14 05:29:00,32.7,15.2,26.40,NW,315,4.0,14.8,48,0.00,,---,0.37,VWS V14.01,2013-02-14 12:29:00,
2013-02-14 05:34:00,32.7,15.2,26.40,NW,315,5.4,14.8,48,0.00,,---,0.37,VWS V14.01,2013-02-14 12:34:00,
2013-02-14 05:39:00,32.5,15.0,26.40,NNW,338,5.6,14.8,48,0.00,,---,0.37,VWS V14.01,2013-02-14 12:39:00,
2013-02-14 05:44:00,32.5,15.0,26.40,NNW,338,6.5,14.8,48,0.00,,---,0.37,VWS V14.01,2013-02-14 12:44:00,
2013-02-14 05:49:00,32.4,14.9,26.40,North,0,9.6,14.8,48,0.00,,---,0.37,VWS V14.01,2013-02-14 12:49:00,
2013-02-14 05:54:00,32.2,15.2,26.40,North,0,3.8,14.8,49,0.00,,---,0.37,VWS V14.01,2013-02-14 12:54:00,
2013-02-14 05:59:00,31.8,14.9,26.43,West,270,7.4,14.8,49,0.00,,---,0.37,VWS V14.01,2013-02-14 12:59:00,
2013-02-14 06:04:00,31.8,14.9,26.43,NNW,338,6.5,14.8,49,0.00,,---,0.37,VWS V14.01,2013-02-14 13:04:00,
2013-02-14 06:09:00,31.5,14.5,26.43,NW,315,13.0,14.8,49,0.00,,---,0.37,VWS V14.01,2013-02-14 13:09:00,
2013-02-14 20:21:00,32.0,18.5,26.40,NNE,22,3.4,3.4,57,0.00,,---,0.37,VWS V14.01,2013-02-15 03:21:00,
2013-02-14 21:21:00,32.0,18.5,26.40,NNE,22,3.4,3.4,57,0.00,,---,0.37,VWS V14.01,2013-02-15 04:21:00,
2013-02-14 21:22:00,33.3,16.6,26.37,NNW,338,6.0,11.4,50,0.00,,---,0.37,VWS V14.01,2013-02-15 04:22:00,
2013-02-14 21:23:00,14.5,5.9,26.66,SSW,202,1.1,1.1,68,0.00,,---,0.37,VWS V14.01,2013-02-15 04:23:00,
2013-02-14 21:24:00,14.5,5.9,26.66,SSW,202,1.1,1.1,68,0.00,,---,0.37,VWS V14.01,2013-02-15 04:24:00,
2013-02-14 21:25:00,14.5,5.9,26.66,SW,225,2.0,2.0,68,0.00,,---,0.37,VWS V14.01,2013-02-15 04:25:00,
2013-02-14 21:26:00,14.7,6.1,26.66,SSW,202,2.5,2.5,68,0.00,,---,0.37,VWS V14.01,2013-02-15 04:26:00,
2013-02-14 21:27:00,14.9,6.3,26.66,SSW,202,1.1,2.5,68,0.00,,---,0.37,VWS V14.01,2013-02-15 04:27:00,
2013-02-14 21:28:00,14.9,6.3,26.66,SW,225,1.6,1.6,68,0.00,,---,0.37,VWS V14.01,2013-02-15 04:28:00,
2013-02-14 21:29:00,14.9,6.3,26.66,SW,225,1.6,1.6,68,0.00,,---,0.37,VWS V14.01,2013-02-15 04:29:00,
2013-02-14 21:30:00,14.9,6.3,26.66,SW,225,0.0,1.6,68,0.00,,---,0.37,VWS V14.01,2013-02-15 04:30:00,
2013-02-14 21:31:00,14.9,5.9,26.66,SW,225,2.0,2.0,67,0.00,,---,0.37,VWS V14.01,2013-02-15 04:31:00,
2013-02-14 21:32:00,14.9,5.9,26.66,SSW,202,2.5,2.5,67,0.00,,---,0.37,VWS V14.01,2013-02-15 04:32:00,
2013-02-14 21:33:00,14.9,5.9,26.66,SW,225,1.1,2.5,67,0.00,,---,0.37,VWS V14.01,2013-02-15 04:33:00,
2013-02-14 21:34:00,14.9,5.9,26.66,SSW,202,2.2,2.2,67,0.00,,---,0.37,VWS V14.01,2013-02-15 04:34:00,
2013-02-14 21:35:00,14.9,5.9,26.66,SSW,202,3.1,3.1,67,0.00,,---,0.37,VWS V14.01,2013-02-15 04:35:00,
2013-02-14 21:36:00,15.1,6.4,26.66,South,180,1.1,3.1,68,0.00,,---,0.37,VWS V14.01,2013-02-15 04:36:00,
2013-02-14 21:37:00,15.1,6.1,26.66,South,180,1.1,1.1,67,0.00,,---,0.37,VWS V14.01,2013-02-15 04:37:00,
2013-02-14 21:38:00,15.1,6.1,26.66,South,180,1.6,1.6,67,0.00,,---,0.37,VWS V14.01,2013-02-15 04:38:00,
2013-02-14 21:39:00,15.1,6.1,26.66,South,180,1.3,1.6,67,0.00,,---,0.37,VWS V14.01,2013-02-15 04:39:00,
2013-02-14 21:40:00,14.9,5.9,26.66,South,180,0.9,1.3,67,0.00,,---,0.37,VWS V14.01,2013-02-15 04:40:00,
2013-02-14 21:41:00,14.9,5.9,26.66,SSW,202,1.3,1.3,67,0.00,,---,0.37,VWS V14.01,2013-02-15 04:41:00,
2013-02-14 21:42:00,14.9,5.9,26.66,SSW,202,0.0,1.3,67,0.00,,---,0.37,VWS V14.01,2013-02-15 04:42:00,
2013-02-14 21:43:00,14.9,5.9,26.66,South,180,2.2,2.2,67,0.00,,---,0.37,VWS V14.01,2013-02-15 04:43:00,
2013-02-14 21:44:00,14.9,5.9,26.66,South,180,1.3,2.2,67,0.00,,---,0.37,VWS V14.01,2013-02-15 04:44:00,
2013-02-14 21:45:00,14.9,5.9,26.66,South,180,2.0,2.0,67,0.00,,---,0.37,VWS V14.01,2013-02-15 04:45:00,
2013-02-14 21:46:00,15.1,6.1,26.66,South,180,0.9,2.0,67,0.00,,---,0.37,VWS V14.01,2013-02-15 04:46:00,
2013-02-14 21:47:00,15.1,6.1,26.66,South,180,0.9,0.9,67,0.00,,---,0.37,VWS V14.01,2013-02-15 04:47:00,
2013-02-14 21:48:00,15.1,6.1,26.64,South,180,1.1,1.1,67,0.00,,---,0.37,VWS V14.01,2013-02-15 04:48:00,
2013-02-14 21:49:00,14.9,5.6,26.64,South,180,1.3,1.3,66,0.00,,---,0.37,VWS V14.01,2013-02-15 04:49:00,
2013-02-14 21:50:00,14.9,5.6,26.64,South,180,0.0,1.3,66,0.00,,---,0.37,VWS V14.01,2013-02-15 04:50:00,
2013-02-14 21:51:00,14.9,5.6,26.64,South,180,0.0,0.0,66,0.00,,---,0.37,VWS V14.01,2013-02-15 04:51:00,
2013-02-14 21:52:00,14.9,5.6,26.64,South,180,1.3,1.3,66,0.00,,---,0.37,VWS V14.01,2013-02-15 04:52:00,
2013-02-14 21:53:00,14.9,5.6,26.64,South,180,2.9,2.9,66,0.00,,---,0.37,VWS V14.01,2013-02-15 04:53:00,
2013-02-14 21:54:00,15.1,5.8,26.64,South,180,0.9,2.9,66,0.00,,---,0.37,VWS V14.01,2013-02-15 04:54:00,
2013-02-14 21:55:00,15.1,5.8,26.64,South,180,0.0,0.9,66,0.00,,---,0.37,VWS V14.01,2013-02-15 04:55:00,
2013-02-14 21:56:00,15.1,5.8,26.64,South,180,1.3,1.3,66,0.00,,---,0.37,VWS V14.01,2013-02-15 04:56:00,
2013-02-14 21:57:00,15.1,5.8,26.64,SSW,202,0.9,1.3,66,0.00,,---,0.37,VWS V14.01,2013-02-15 04:57:00,
2013-02-14 21:58:00,15.1,5.8,26.64,South,180,2.2,2.2,66,0.00,,---,0.37,VWS V14.01,2013-02-15 04:58:00,
2013-02-14 21:59:00,15.1,5.8,26.64,SSW,202,0.0,2.2,66,0.00,,---,0.37,VWS V14.01,2013-02-15 04:59:00,
2013-02-14 22:00:00,15.1,5.8,26.64,SSW,202,0.0,0.0,66,0.00,,---,0.37,VWS V14.01,2013-02-15 05:00:00,
2013-02-14 22:01:00,15.1,5.8,26.64,South,180,1.3,1.3,66,0.00,,---,0.37,VWS V14.01,2013-02-15 05:01:00,
2013-02-14 22:02:00,15.1,5.8,26.64,South,180,0.0,1.3,66,0.00,,---,0.37,VWS V14.01,2013-02-15 05:02:00,
2013-02-14 22:03:00,14.9,5.6,26.64,SW,225,0.0,0.0,66,0.00,,---,0.37,VWS V14.01,2013-02-15 05:03:00,
2013-02-14 22:04:00,14.9,5.6,26.64,SW,225,0.0,0.0,66,0.00,,---,0.37,VWS V14.01,2013-02-15 05:04:00,
2013-02-14 22:05:00,14.9,5.6,26.64,SW,225,0.0,0.0,66,0.00,,---,0.37,VWS V14.01,2013-02-15 05:05:00,
2013-02-14 22:06:00,14.9,5.3,26.64,South,180,0.9,0.9,65,0.00,,---,0.37,VWS V14.01,2013-02-15 05:06:00,
2013-02-14 22:07:00,14.9,5.3,26.64,South,180,1.3,1.3,65,0.00,,---,0.37,VWS V14.01,2013-02-15 05:07:00,
2013-02-14 22:08:00,14.9,5.3,26.64,SSW,202,1.3,1.3,65,0.00,,---,0.37,VWS V14.01,2013-02-15 05:08:00,
2013-02-14 22:09:00,14.9,5.3,26.64,SSW,202,1.3,1.3,65,0.00,,---,0.37,VWS V14.01,2013-02-15 05:09:00,
2013-02-14 22:10:00,14.9,5.3,26.64,SSW,202,1.6,1.6,65,0.00,,---,0.37,VWS V14.01,2013-02-15 05:10:00,
2013-02-14 22:11:00,14.9,5.3,26.64,SSW,202,1.1,1.6,65,0.00,,---,0.37,VWS V14.01,2013-02-15 05:11:00,
2013-02-14 22:12:00,14.9,5.3,26.64,SSW,202,1.1,1.1,65,0.00,,---,0.37,VWS V14.01,2013-02-15 05:12:00,
2013-02-14 22:13:00,14.9,5.3,26.64,SSW,202,2.0,2.0,65,0.00,,---,0.37,VWS V14.01,2013-02-15 05:13:00,
2013-02-14 22:14:00,14.9,5.3,26.64,SSW,202,1.6,2.0,65,0.00,,---,0.37,VWS V14.01,2013-02-15 05:14:00,
2013-02-14 22:15:00,15.1,5.4,26.64,SSW,202,1.3,1.6,65,0.00,,---,0.37,VWS V14.01,2013-02-15 05:15:00,
2013-02-14 22:16:00,15.1,5.4,26.64,SSW,202,1.1,1.3,65,0.00,,---,0.37,VWS V14.01,2013-02-15 05:16:00,
2013-02-14 22:17:00,15.1,5.4,26.64,SSW,202,0.0,1.1,65,0.00,,---,0.37,VWS V14.01,2013-02-15 05:17:00,
2013-02-14 22:18:00,15.1,5.4,26.64,SSW,202,0.0,0.0,65,0.00,,---,0.37,VWS V14.01,2013-02-15 05:18:00,
2013-02-14 22:19:00,14.9,5.3,26.64,SSW,202,0.0,0.0,65,0.00,,---,0.37,VWS V14.01,2013-02-15 05:19:00,
2013-02-14 22:20:00,14.9,5.3,26.64,SSW,202,0.0,0.0,65,0.00,,---,0.37,VWS V14.01,2013-02-15 05:20:00,
2013-02-14 22:21:00,14.9,5.3,26.64,SSW,202,0.0,0.0,65,0.00,,---,0.37,VWS V14.01,2013-02-15 05:21:00,
2013-02-14 22:22:00,33.3,16.6,26.37,NNW,338,6.0,11.4,50,0.00,,---,0.37,VWS V14.01,2013-02-15 05:22:00,
2013-02-14 22:23:00,14.5,5.9,26.66,SSW,202,1.1,1.1,68,0.00,,---,0.37,VWS V14.01,2013-02-15 05:23:00,
2013-02-14 22:24:00,14.5,5.9,26.66,SSW,202,1.1,1.1,68,0.00,,---,0.37,VWS V14.01,2013-02-15 05:24:00,
2013-02-14 22:25:00,14.5,5.9,26.66,SW,225,2.0,2.0,68,0.00,,---,0.37,VWS V14.01,2013-02-15 05:25:00,
2013-02-14 22:26:00,14.7,6.1,26.66,SSW,202,2.5,2.5,68,0.00,,---,0.37,VWS V14.01,2013-02-15 05:26:00,
2013-02-14 22:27:00,14.9,6.3,26.66,SSW,202,1.1,2.5,68,0.00,,---,0.37,VWS V14.01,2013-02-15 05:27:00,
2013-02-14 22:28:00,14.9,6.3,26.66,SW,225,1.6,1.6,68,0.00,,---,0.37,VWS V14.01,2013-02-15 05:28:00,
2013-02-14 22:29:00,14.9,6.3,26.66,SW,225,1.6,1.6,68,0.00,,---,0.37,VWS V14.01,2013-02-15 05:29:00,
2013-02-14 22:30:00,14.9,6.3,26.66,SW,225,0.0,1.6,68,0.00,,---,0.37,VWS V14.01,2013-02-15 05:30:00,
2013-02-14 22:31:00,14.9,5.9,26.66,SW,225,2.0,2.0,67,0.00,,---,0.37,VWS V14.01,2013-02-15 05:31:00,
2013-02-14 22:32:00,14.9,5.9,26.66,SSW,202,2.5,2.5,67,0.00,,---,0.37,VWS V14.01,2013-02-15 05:32:00,
2013-02-14 22:33:00,14.9,5.9,26.66,SW,225,1.1,2.5,67,0.00,,---,0.37,VWS V14.01,2013-02-15 05:33:00,
2013-02-14 22:34:00,14.9,5.9,26.66,SSW,202,2.2,2.2,67,0.00,,---,0.37,VWS V14.01,2013-02-15 05:34:00,
2013-02-14 22:35:00,14.9,5.9,26.66,SSW,202,3.1,3.1,67,0.00,,---,0.37,VWS V14.01,2013-02-15 05:35:00,
2013-02-14 22:36:00,15.1,6.4,26.66,South,180,1.1,3.1,68,0.00,,---,0.37,VWS V14.01,2013-02-15 05:36:00,
2013-02-14 22:37:00,15.1,6.1,26.66,South,180,1.1,1.1,67,0.00,,---,0.37,VWS V14.01,2013-02-15 05:37:00,
2013-02-14 22:38:00,15.1,6.1,26.66,South,180,1.6,1.6,67,0.00,,---,0.37,VWS V14.01,2013-02-15 05:38:00,
2013-02-14 22:39:00,15.1,6.1,26.66,South,180,1.3,1.6,67,0.00,,---,0.37,VWS V14.01,2013-02-15 05:39:00,
2013-02-14 22:40:00,14.9,5.9,26.66,South,180,0.9,1.3,67,0.00,,---,0.37,VWS V14.01,2013-02-15 05:40:00,
2013-02-14 22:41:00,14.9,5.9,26.66,SSW,202,1.3,1.3,67,0.00,,---,0.37,VWS V14.01,2013-02-15 05:41:00,
2013-02-14 22:42:00,14.9,5.9,26.66,SSW,202,0.0,1.3,67,0.00,,---,0.37,VWS V14.01,2013-02-15 05:42:00,
2013-02-14 22:43:00,14.9,5.9,26.66,South,180,2.2,2.2,67,0.00,,---,0.37,VWS V14.01,2013-02-15 05:43:00,
2013-02-14 22:44:00,14.9,5.9,26.66,South,180,1.3,2.2,67,0.00,,---,0.37,VWS V14.01,2013-02-15 05:44:00,
2013-02-14 22:45:00,14.9,5.9,26.66,South,180,2.0,2.0,67,0.00,,---,0.37,VWS V14.01,2013-02-15 05:45:00,
2013-02-14 22:46:00,15.1,6.1,26.66,South,180,0.9,2.0,67,0.00,,---,0.37,VWS V14.01,2013-02-15 05:46:00,
2013-02-14 22:47:00,15.1,6.1,26.66,South,180,0.9,0.9,67,0.00,,---,0.37,VWS V14.01,2013-02-15 05:47:00,
2013-02-14 22:48:00,15.1,6.1,26.63,South,180,1.1,1.1,67,0.00,,---,0.37,VWS V14.01,2013-02-15 05:48:00,
2013-02-14 22:49:00,14.9,5.6,26.63,South,180,1.3,1.3,66,0.00,,---,0.37,VWS V14.01,2013-02-15 05:49:00,
2013-02-14 22:50:00,14.9,5.6,26.63,South,180,0.0,1.3,66,0.00,,---,0.37,VWS V14.01,2013-02-15 05:50:00,
2013-02-14 22:51:00,14.9,5.6,26.63,South,180,0.0,0.0,66,0.00,,---,0.37,VWS V14.01,2013-02-15 05:51:00,
2013-02-14 22:52:00,14.9,5.6,26.63,South,180,1.3,1.3,66,0.00,,---,0.37,VWS V14.01,2013-02-15 05:52:00,
2013-02-14 22:53:00,14.9,5.6,26.63,South,180,2.9,2.9,66,0.00,,---,0.37,VWS V14.01,2013-02-15 05:53:00,
2013-02-14 22:54:00,15.1,5.8,26.63,South,180,0.9,2.9,66,0.00,,---,0.37,VWS V14.01,2013-02-15 05:54:00,
2013-02-14 22:55:00,15.1,5.8,26.63,South,180,0.0,0.9,66,0.00,,---,0.37,VWS V14.01,2013-02-15 05:55:00,
2013-02-14 22:56:00,15.1,5.8,26.63,South,180,1.3,1.3,66,0.00,,---,0.37,VWS V14.01,2013-02-15 05:56:00,
2013-02-14 22:57:00,15.1,5.8,26.63,SSW,202,0.9,1.3,66,0.00,,---,0.37,VWS V14.01,2013-02-15 05:57:00,
2013-02-14 22:58:00,15.1,5.8,26.63,South,180,2.2,2.2,66,0.00,,---,0.37,VWS V14.01,2013-02-15 05:58:00,
2013-02-14 22:59:00,15.1,5.8,26.63,SSW,202,0.0,2.2,66,0.00,,---,0.37,VWS V14.01,2013-02-15 05:59:00,
2013-02-14 23:00:00,15.1,5.8,26.63,SSW,202,0.0,0.0,66,0.00,,---,0.37,VWS V14.01,2013-02-15 06:00:00,
2013-02-14 23:01:00,15.1,5.8,26.63,South,180,1.3,1.3,66,0.00,,---,0.37,VWS V14.01,2013-02-15 06:01:00,
2013-02-14 23:02:00,15.1,5.8,26.63,South,180,0.0,1.3,66,0.00,,---,0.37,VWS V14.01,2013-02-15 06:02:00,
2013-02-14 23:03:00,14.9,5.6,26.63,SW,225,0.0,0.0,66,0.00,,---,0.37,VWS V14.01,2013-02-15 06:03:00,
2013-02-14 23:04:00,14.9,5.6,26.63,SW,225,0.0,0.0,66,0.00,,---,0.37,VWS V14.01,2013-02-15 06:04:00,
2013-02-14 23:05:00,14.9,5.6,26.63,SW,225,0.0,0.0,66,0.00,,---,0.37,VWS V14.01,2013-02-15 06:05:00,
2013-02-14 23:06:00,14.9,5.3,26.63,South,180,0.9,0.9,65,0.00,,---,0.37,VWS V14.01,2013-02-15 06:06:00,
2013-02-14 23:07:00,14.9,5.3,26.63,South,180,1.3,1.3,65,0.00,,---,0.37,VWS V14.01,2013-02-15 06:07:00,
2013-02-14 23:08:00,14.9,5.3,26.63,SSW,202,1.3,1.3,65,0.00,,---,0.37,VWS V14.01,2013-02-15 06:08:00,
2013-02-14 23:09:00,14.9,5.3,26.63,SSW,202,1.3,1.3,65,0.00,,---,0.37,VWS V14.01,2013-02-15 06:09:00,
2013-02-14 23:10:00,14.9,5.3,26.63,SSW,202,1.6,1.6,65,0.00,,---,0.37,VWS V14.01,2013-02-15 06:10:00,
2013-02-14 23:11:00,14.9,5.3,26.63,SSW,202,1.1,1.6,65,0.00,,---,0.37,VWS V14.01,2013-02-15 06:11:00,
2013-02-14 23:12:00,14.9,5.3,26.63,SSW,202,1.1,1.1,65,0.00,,---,0.37,VWS V14.01,2013-02-15 06:12:00,
2013-02-14 23:13:00,14.9,5.3,26.63,SSW,202,2.0,2.0,65,0.00,,---,0.37,VWS V14.01,2013-02-15 06:13:00,
2013-02-14 23:14:00,14.9,5.3,26.63,SSW,202,1.6,2.0,65,0.00,,---,0.37,VWS V14.01,2013-02-15 06:14:00,
2013-02-14 23:15:00,15.1,5.4,26.63,SSW,202,1.3,1.6,65,0.00,,---,0.37,VWS V14.01,2013-02-15 06:15:00,
2013-02-14 23:16:00,15.1,5.4,26.63,SSW,202,1.1,1.3,65,0.00,,---,0.37,VWS V14.01,2013-02-15 06:16:00,
2013-02-14 23:17:00,15.1,5.4,26.63,SSW,202,0.0,1.1,65,0.00,,---,0.37,VWS V14.01,2013-02-15 06:17:00,
2013-02-14 23:18:00,15.1,5.4,26.63,SSW,202,0.0,0.0,65,0.00,,---,0.37,VWS V14.01,2013-02-15 06:18:00,
2013-02-14 23:19:00,14.9,5.3,26.63,SSW,202,0.0,0.0,65,0.00,,---,0.37,VWS V14.01,2013-02-15 06:19:00,
2013-02-14 23:20:00,14.9,5.3,26.63,SSW,202,0.0,0.0,65,0.00,,---,0.37,VWS V14.01,2013-02-15 06:20:00,
2013-02-14 23:21:00,14.9,5.3,26.63,SSW,202,0.0,0.0,65,0.00,,---,0.37,VWS V14.01,2013-02-15 06:21:00,
2013-02-14 23:22:00,14.7,5.1,26.63,SSW,202,0.0,0.0,65,0.00,,---,0.37,VWS V14.01,2013-02-15 06:22:00,
2013-02-14 23:23:00,14.7,5.1,26.63,SSW,202,0.0,0.0,65,0.00,,---,0.37,VWS V14.01,2013-02-15 06:23:00,
2013-02-14 23:24:00,14.7,5.1,26.63,SSW,202,0.0,0.0,65,0.00,,---,0.37,VWS V14.01,2013-02-15 06:24:00,
2013-02-14 23:25:00,14.5,4.9,26.63,SSW,202,0.0,0.0,65,0.00,,---,0.37,VWS V14.01,2013-02-15 06:25:00,
2013-02-14 23:26:00,14.5,4.9,26.63,SSW,202,0.0,0.0,65,0.00,,---,0.37,VWS V14.01,2013-02-15 06:26:00,
2013-02-14 23:27:00,14.5,4.9,26.63,SSW,202,0.0,0.0,65,0.00,,---,0.37,VWS V14.01,2013-02-15 06:27:00,
2013-02-14 23:28:00,14.4,4.8,26.63,SSW,202,0.0,0.0,65,0.00,,---,0.37,VWS V14.01,2013-02-15 06:28:00,
2013-02-14 23:29:00,14.4,4.8,26.63,SSW,202,0.0,0.0,65,0.00,,---,0.37,VWS V14.01,2013-02-15 06:29:00,
2013-02-14 23:30:00,14.4,4.8,26.63,SSW,202,0.0,0.0,65,0.00,,---,0.37,VWS V14.01,2013-02-15 06:30:00,
2013-02-14 23:31:00,14.4,4.8,26.63,SSW,202,0.0,0.0,65,0.00,,---,0.37,VWS V14.01,2013-02-15 06:31:00,
2013-02-14 23:32:00,14.4,4.8,26.63,SSW,202,0.0,0.0,65,0.00,,---,0.37,VWS V14.01,2013-02-15 06:32:00,
2013-02-14 23:33:00,14.4,4.8,26.63,SSW,202,0.0,0.0,65,0.00,,---,0.37,VWS V14.01,2013-02-15 06:33:00,
2013-02-14 23:34:00,14.4,4.8,26.63,SSW,202,0.0,0.0,65,0.00,,---,0.37,VWS V14.01,2013-02-15 06:34:00,
2013-02-14 23:35:00,14.4,4.8,26.63,SSW,202,0.0,0.0,65,0.00,,---,0.37,VWS V14.01,2013-02-15 06:35:00,
2013-02-14 23:36:00,14.4,4.8,26.63,SSW,202,1.1,1.1,65,0.00,,---,0.37,VWS V14.01,2013-02-15 06:36:00,
2013-02-14 23:37:00,14.5,4.9,26.63,SSW,202,1.1,1.1,65,0.00,,---,0.37,VWS V14.01,2013-02-15 06:37:00,
2013-02-14 23:38:00,14.5,4.9,26.63,SSW,202,0.0,1.1,65,0.00,,---,0.37,VWS V14.01,2013-02-15 06:38:00,
2013-02-14 23:39:00,14.5,4.9,26.63,SSW,202,0.0,0.0,65,0.00,,---,0.37,VWS V14.01,2013-02-15 06:39:00,
2013-02-14 23:40:00,14.5,4.9,26.63,SSW,202,0.0,0.0,65,0.00,,---,0.37,VWS V14.01,2013-02-15 06:40:00,
2013-02-14 23:41:00,14.5,4.9,26.63,SW,225,2.0,2.0,65,0.00,,---,0.37,VWS V14.01,2013-02-15 06:41:00,
2013-02-14 23:42:00,14.5,4.9,26.63,SW,225,1.1,2.0,65,0.00,,---,0.37,VWS V14.01,2013-02-15 06:42:00,
2013-02-14 23:43:00,14.5,4.9,26.63,SW,225,0.0,1.1,65,0.00,,---,0.37,VWS V14.01,2013-02-15 06:43:00,
2013-02-14 23:44:00,14.7,5.1,26.63,SW,225,0.0,0.0,65,0.00,,---,0.37,VWS V14.01,2013-02-15 06:44:00,
2013-02-14 23:45:00,14.7,5.1,26.63,SW,225,0.0,0.0,65,0.00,,---,0.37,VWS V14.01,2013-02-15 06:45:00,
2013-02-14 23:46:00,14.7,5.1,26.63,SW,225,0.0,0.0,65,0.00,,---,0.37,VWS V14.01,2013-02-15 06:46:00,
2013-02-14 23:47:00,14.7,5.1,26.63,SW,225,0.9,0.9,65,0.00,,---,0.37,VWS V14.01,2013-02-15 06:47:00,
2013-02-14 23:48:00,14.7,5.1,26.66,WSW,248,0.9,0.9,65,0.00,,---,0.37,VWS V14.01,2013-02-15 06:48:00,
2013-02-14 23:49:00,14.7,5.1,26.66,South,180,1.1,1.1,65,0.00,,---,0.37,VWS V14.01,2013-02-15 06:49:00,
2013-02-14 23:50:00,14.9,5.3,26.66,WSW,248,1.3,1.3,65,0.00,,---,0.37,VWS V14.01,2013-02-15 06:50:00,
2013-02-14 23:51:00,14.9,5.3,26.66,WSW,248,0.0,1.3,65,0.00,,---,0.37,VWS V14.01,2013-02-15 06:51:00,
2013-02-14 23:52:00,15.1,5.4,26.66,WSW,248,0.9,0.9,65,0.00,,---,0.37,VWS V14.01,2013-02-15 06:52:00,
2013-02-14 23:53:00,15.1,5.4,26.66,WSW,248,0.0,0.9,65,0.00,,---,0.37,VWS V14.01,2013-02-15 06:53:00,
2013-02-14 23:54:00,15.1,5.4,26.66,WSW,248,0.0,0.0,65,0.00,,---,0.37,VWS V14.01,2013-02-15 06:54:00,
2013-02-14 23:55:00,15.1,5.4,26.66,SW,225,0.0,0.0,65,0.00,,---,0.37,VWS V14.01,2013-02-15 06:55:00,
2013-02-14 23:56:00,15.1,5.4,26.66,West,270,1.1,1.1,65,0.00,,---,0.37,VWS V14.01,2013-02-15 06:56:00,
2013-02-14 23:57:00,15.1,5.4,26.66,West,270,1.6,1.6,65,0.00,,---,0.37,VWS V14.01,2013-02-15 06:57:00,
2013-02-14 23:58:00,15.1,5.4,26.66,SW,225,1.3,1.6,65,0.00,,---,0.37,VWS V14.01,2013-02-15 06:58:00,
2013-02-14 23:59:00,15.1,5.4,26.66,SW,225,0.0,1.3,65,0.00,,---,0.37,VWS V14.01,2013-02-15 06:59:00,